createdAt,value
2017-09-15T00:00:22.437Z,8.80
2017-09-15T00:02:50.029Z,8.80
2017-09-15T00:05:18.683Z,8.90
2017-09-15T00:07:46.254Z,8.90
2017-09-15T00:10:13.812Z,8.90
2017-09-15T00:12:41.673Z,9.00
2017-09-15T00:15:09.250Z,9.10
2017-09-15T00:17:36.799Z,9.10
2017-09-15T00:20:04.376Z,9.00
2017-09-15T00:22:31.952Z,9.00
2017-09-15T00:24:59.504Z,8.90
2017-09-15T00:27:27.099Z,8.90
2017-09-15T00:29:54.637Z,8.90
2017-09-15T00:32:22.190Z,8.90
2017-09-15T00:34:49.745Z,8.90
2017-09-15T00:37:17.305Z,8.90
2017-09-15T00:39:44.878Z,8.90
2017-09-15T00:42:12.435Z,8.90
2017-09-15T00:44:39.948Z,8.90
2017-09-15T00:47:07.499Z,8.90
2017-09-15T00:49:35.107Z,8.80
2017-09-15T00:52:02.681Z,8.80
2017-09-15T00:54:30.240Z,8.80
2017-09-15T00:56:57.782Z,8.70
2017-09-15T00:59:26.094Z,8.80
2017-09-15T01:01:53.655Z,8.70
2017-09-15T01:04:21.247Z,8.80
2017-09-15T01:06:48.799Z,8.70
2017-09-15T01:09:16.366Z,8.70
2017-09-15T01:11:43.928Z,8.70
2017-09-15T01:14:11.485Z,8.70
2017-09-15T01:16:39.040Z,8.70
2017-09-15T01:19:06.616Z,8.70
2017-09-15T01:21:34.151Z,8.70
2017-09-15T01:24:01.770Z,8.60
2017-09-15T01:26:29.444Z,8.60
2017-09-15T01:28:57.027Z,8.60
2017-09-15T01:31:24.544Z,8.60
2017-09-15T01:33:52.140Z,8.50
2017-09-15T01:36:19.681Z,8.60
2017-09-15T01:38:47.255Z,8.60
2017-09-15T01:41:21.130Z,8.50
2017-09-15T01:43:48.659Z,8.40
2017-09-15T01:46:16.210Z,8.40
2017-09-15T01:48:43.774Z,8.40
2017-09-15T01:51:11.343Z,8.40
2017-09-15T01:53:38.909Z,8.30
2017-09-15T01:56:06.573Z,8.20
2017-09-15T01:58:34.260Z,8.20
2017-09-15T02:01:01.823Z,8.10
2017-09-15T02:03:30.167Z,8.10
2017-09-15T02:05:57.717Z,8.10
2017-09-15T02:08:25.269Z,8.00
2017-09-15T02:10:52.846Z,8.00
2017-09-15T02:13:20.389Z,8.00
2017-09-15T02:15:47.962Z,7.90
2017-09-15T02:18:15.589Z,7.90
2017-09-15T02:20:44.291Z,7.70
2017-09-15T02:23:12.613Z,7.60
2017-09-15T02:25:40.227Z,7.60
2017-09-15T02:28:07.785Z,7.50
2017-09-15T02:30:36.116Z,7.50
2017-09-15T02:33:03.688Z,7.50
2017-09-15T02:35:31.270Z,7.50
2017-09-15T02:37:58.814Z,7.40
2017-09-15T02:40:26.341Z,7.40
2017-09-15T02:42:54.662Z,7.30
2017-09-15T02:45:22.206Z,7.30
2017-09-15T02:47:49.749Z,7.30
2017-09-15T02:50:18.128Z,7.20
2017-09-15T02:52:46.457Z,7.10
2017-09-15T02:55:13.999Z,7.10
2017-09-15T02:57:41.575Z,7.10
2017-09-15T03:00:09.123Z,7.00
2017-09-15T03:02:36.681Z,7.00
2017-09-15T03:05:04.277Z,6.90
2017-09-15T03:07:31.868Z,6.80
2017-09-15T03:09:59.412Z,6.80
2017-09-15T03:12:26.994Z,6.80
2017-09-15T03:14:54.522Z,6.70
2017-09-15T03:17:22.083Z,6.70
2017-09-15T03:19:49.654Z,6.60
2017-09-15T03:22:17.210Z,6.50
2017-09-15T03:24:44.796Z,6.50
2017-09-15T03:27:12.333Z,6.50
2017-09-15T03:29:39.893Z,6.60
2017-09-15T03:32:07.457Z,6.60
2017-09-15T03:34:35.003Z,6.70
2017-09-15T03:37:03.357Z,6.70
2017-09-15T03:39:30.897Z,6.60
2017-09-15T03:41:58.428Z,6.70
2017-09-15T03:44:26.763Z,6.70
2017-09-15T03:46:54.328Z,6.70
2017-09-15T03:49:23.797Z,6.80
2017-09-15T03:51:51.389Z,6.70
2017-09-15T03:54:18.952Z,6.70
2017-09-15T03:56:46.505Z,6.70
2017-09-15T03:59:14.075Z,6.80
2017-09-15T04:01:41.626Z,6.80
2017-09-15T04:04:09.235Z,6.70
2017-09-15T04:06:36.789Z,6.70
2017-09-15T04:09:04.332Z,6.60
2017-09-15T04:11:31.908Z,6.60
2017-09-15T04:13:59.471Z,6.50
2017-09-15T04:16:27.047Z,6.40
2017-09-15T04:18:54.612Z,6.20
2017-09-15T04:21:22.178Z,6.10
2017-09-15T04:23:49.781Z,6.00
2017-09-15T04:26:18.102Z,5.80
2017-09-15T04:28:45.651Z,5.70
2017-09-15T04:31:13.234Z,5.60
2017-09-15T04:33:40.804Z,5.50
2017-09-15T04:36:08.369Z,5.40
2017-09-15T04:38:35.960Z,5.40
2017-09-15T04:41:03.499Z,5.30
2017-09-15T04:43:31.090Z,5.10
2017-09-15T04:45:58.660Z,5.00
2017-09-15T04:48:26.238Z,5.00
2017-09-15T04:50:54.548Z,4.90
2017-09-15T04:53:22.127Z,4.90
2017-09-15T04:55:49.712Z,5.00
2017-09-15T04:58:17.264Z,4.90
2017-09-15T05:00:44.894Z,5.00
2017-09-15T05:03:13.219Z,5.00
2017-09-15T05:05:40.766Z,5.00
2017-09-15T05:08:08.347Z,5.10
2017-09-15T05:10:35.923Z,5.20
2017-09-15T05:13:03.519Z,5.20
2017-09-15T05:15:31.073Z,5.30
2017-09-15T05:17:58.643Z,5.40
2017-09-15T05:20:26.235Z,5.50
2017-09-15T05:22:53.794Z,5.50
2017-09-15T05:25:22.084Z,5.70
2017-09-15T05:27:49.661Z,5.70
2017-09-15T05:30:17.267Z,5.70
2017-09-15T05:32:44.824Z,5.90
2017-09-15T05:35:12.394Z,5.90
2017-09-15T05:37:39.918Z,6.00
2017-09-15T05:40:07.479Z,6.10
2017-09-15T05:42:35.034Z,6.30
2017-09-15T05:45:03.336Z,6.40
2017-09-15T05:47:30.926Z,6.40
2017-09-15T05:49:58.473Z,6.50
2017-09-15T05:52:27.697Z,6.70
2017-09-15T05:54:55.291Z,6.60
2017-09-15T05:57:23.579Z,6.70
2017-09-15T05:59:51.892Z,6.90
2017-09-15T06:02:19.491Z,6.90
2017-09-15T06:04:47.039Z,7.00
2017-09-15T06:07:14.624Z,7.10
2017-09-15T06:09:42.185Z,7.30
2017-09-15T06:12:09.717Z,7.40
2017-09-15T06:14:37.265Z,7.50
2017-09-15T06:17:05.544Z,7.60
2017-09-15T06:19:33.861Z,7.70
2017-09-15T06:22:01.381Z,7.70
2017-09-15T06:24:29.690Z,7.90
2017-09-15T06:26:57.407Z,7.90
2017-09-15T06:29:24.955Z,8.00
2017-09-15T06:31:52.515Z,8.10
2017-09-15T06:34:20.060Z,8.20
2017-09-15T06:36:47.590Z,8.20
2017-09-15T06:39:15.875Z,8.50
2017-09-15T06:41:44.233Z,8.50
2017-09-15T06:44:11.790Z,8.50
2017-09-15T06:46:39.354Z,8.60
2017-09-15T06:49:06.949Z,8.70
2017-09-15T06:51:35.280Z,8.90
2017-09-15T06:54:02.822Z,8.90
2017-09-15T06:56:30.405Z,9.10
2017-09-15T06:58:57.952Z,9.20
2017-09-15T07:01:25.497Z,9.30
2017-09-15T07:03:53.849Z,9.70
2017-09-15T07:06:21.394Z,9.70
2017-09-15T07:08:48.957Z,9.90
2017-09-15T07:11:16.532Z,10.10
2017-09-15T07:13:44.074Z,10.20
2017-09-15T07:16:11.637Z,10.30
2017-09-15T07:18:39.224Z,10.40
2017-09-15T07:21:06.808Z,10.50
2017-09-15T07:23:35.172Z,10.80
2017-09-15T07:26:02.740Z,10.80
2017-09-15T07:28:30.291Z,11.00
2017-09-15T07:30:57.869Z,11.10
2017-09-15T07:33:25.403Z,11.30
2017-09-15T07:35:52.974Z,11.30
2017-09-15T07:38:20.540Z,11.40
2017-09-15T07:40:48.101Z,11.50
2017-09-15T07:43:15.667Z,11.90
2017-09-15T07:45:43.209Z,13.00
2017-09-15T07:48:10.758Z,14.50
2017-09-15T07:50:38.328Z,16.10
2017-09-15T07:53:06.640Z,18.70
2017-09-15T07:55:34.168Z,18.60
2017-09-15T07:58:02.540Z,19.90
2017-09-15T08:00:30.852Z,19.90
2017-09-15T08:02:58.437Z,19.90
2017-09-15T08:05:27.015Z,20.40
2017-09-15T08:07:54.567Z,20.50
2017-09-15T08:10:22.121Z,21.20
2017-09-15T08:12:49.676Z,22.40
2017-09-15T08:15:18.023Z,23.10
2017-09-15T08:17:45.581Z,23.00
2017-09-15T08:20:13.127Z,23.80
2017-09-15T08:22:40.668Z,24.20
2017-09-15T08:25:08.297Z,23.00
2017-09-15T08:27:35.855Z,23.50
2017-09-15T08:30:03.386Z,23.30
2017-09-15T08:32:30.963Z,23.60
2017-09-15T08:34:58.531Z,23.00
2017-09-15T08:37:26.097Z,23.00
2017-09-15T08:39:53.635Z,23.40
2017-09-15T08:42:21.157Z,24.30
2017-09-15T08:44:49.499Z,22.70
2017-09-15T08:47:17.050Z,22.70
2017-09-15T08:49:44.631Z,23.10
2017-09-15T08:52:12.158Z,23.70
2017-09-15T08:54:39.702Z,24.20
2017-09-15T08:57:08.012Z,24.60
2017-09-15T08:59:35.575Z,24.60
2017-09-15T09:02:03.164Z,24.60
2017-09-15T09:04:30.710Z,23.70
2017-09-15T09:06:58.249Z,24.10
2017-09-15T09:09:26.588Z,25.40
2017-09-15T09:11:54.135Z,25.30
2017-09-15T09:14:21.674Z,24.50
2017-09-15T09:16:49.255Z,23.90
2017-09-15T09:19:16.805Z,23.00
2017-09-15T09:21:44.354Z,21.90
2017-09-15T09:24:12.726Z,23.90
2017-09-15T09:26:41.081Z,24.30
2017-09-15T09:29:08.636Z,24.30
2017-09-15T09:31:36.210Z,23.10
2017-09-15T09:34:03.749Z,23.20
2017-09-15T09:36:31.295Z,24.10
2017-09-15T09:38:59.833Z,24.90
2017-09-15T09:41:27.421Z,25.90
2017-09-15T09:43:55.745Z,29.10
2017-09-15T09:46:23.272Z,28.90
2017-09-15T09:48:51.574Z,28.80
2017-09-15T09:51:19.156Z,28.80
2017-09-15T09:53:46.718Z,28.20
2017-09-15T09:56:14.259Z,26.40
2017-09-15T09:58:41.836Z,25.00
2017-09-15T10:01:09.452Z,23.40
2017-09-15T10:03:37.354Z,22.30
2017-09-15T10:06:05.727Z,21.60
2017-09-15T10:08:34.089Z,22.50
2017-09-15T10:11:01.667Z,22.50
2017-09-15T10:13:29.254Z,21.60
2017-09-15T10:15:57.164Z,21.20
2017-09-15T10:18:24.685Z,21.10
2017-09-15T10:20:54.461Z,22.70
2017-09-15T10:23:22.826Z,22.70
2017-09-15T10:25:51.397Z,23.80
2017-09-15T10:28:19.100Z,24.10
2017-09-15T10:30:46.765Z,25.60
2017-09-15T10:33:35.788Z,26.00
2017-09-15T10:36:03.615Z,24.90
2017-09-15T10:38:32.081Z,25.00
2017-09-15T10:40:59.728Z,25.40
2017-09-15T10:43:28.778Z,26.00
2017-09-15T10:45:57.113Z,25.50
2017-09-15T10:48:24.782Z,25.50
2017-09-15T10:50:53.560Z,24.00
2017-09-15T10:53:22.231Z,22.70
2017-09-15T10:55:50.063Z,20.90
2017-09-15T10:58:24.311Z,19.80
2017-09-15T11:00:52.169Z,19.80
2017-09-15T11:03:20.865Z,19.40
2017-09-15T11:05:48.553Z,19.40
2017-09-15T11:08:16.178Z,19.00
2017-09-15T11:10:44.946Z,18.50
2017-09-15T11:13:13.188Z,18.50
2017-09-15T11:15:40.947Z,18.10
2017-09-15T11:18:08.601Z,17.80
2017-09-15T11:20:37.798Z,17.70
2017-09-15T11:23:05.559Z,17.70
2017-09-15T11:25:35.188Z,18.40
2017-09-15T11:28:02.866Z,18.40
2017-09-15T11:30:30.506Z,19.00
2017-09-15T11:32:58.929Z,20.40
2017-09-15T11:35:26.547Z,20.40
2017-09-15T11:37:54.108Z,21.40
2017-09-15T11:40:22.047Z,21.40
2017-09-15T11:42:49.622Z,20.80
2017-09-15T11:45:18.157Z,21.30
2017-09-15T11:47:45.738Z,21.30
2017-09-15T11:50:13.280Z,21.20
2017-09-15T11:52:40.826Z,22.10
2017-09-15T11:55:09.169Z,22.90
2017-09-15T11:57:36.796Z,22.90
2017-09-15T12:00:04.353Z,22.40
2017-09-15T12:02:31.900Z,21.90
2017-09-15T12:04:59.693Z,21.40
2017-09-15T12:07:27.360Z,20.60
2017-09-15T12:09:58.199Z,20.20
2017-09-15T12:12:27.314Z,20.20
2017-09-15T12:14:54.920Z,21.30
2017-09-15T12:17:22.470Z,22.00
2017-09-15T12:19:50.051Z,21.90
2017-09-15T12:22:17.602Z,21.70
2017-09-15T12:24:46.150Z,22.50
2017-09-15T12:27:14.447Z,25.90
2017-09-15T12:29:42.202Z,25.80
2017-09-15T12:32:10.952Z,27.30
2017-09-15T12:34:38.492Z,28.20
2017-09-15T12:37:06.055Z,28.90
2017-09-15T12:39:34.451Z,29.50
2017-09-15T12:42:02.021Z,27.90
2017-09-15T12:44:30.615Z,26.40
2017-09-15T12:46:58.194Z,25.30
2017-09-15T12:49:25.737Z,24.00
2017-09-15T12:51:53.343Z,22.20
2017-09-15T12:54:21.715Z,20.40
2017-09-15T12:56:49.266Z,20.40
2017-09-15T12:59:16.819Z,19.80
2017-09-15T13:01:44.388Z,20.00
2017-09-15T13:04:12.592Z,20.00
2017-09-15T13:06:40.375Z,20.70
2017-09-15T13:09:09.226Z,24.30
2017-09-15T13:11:37.163Z,24.30
2017-09-15T13:14:05.275Z,24.40
2017-09-15T13:16:32.975Z,24.10
2017-09-15T13:19:01.357Z,24.80
2017-09-15T13:21:28.933Z,24.70
2017-09-15T13:23:58.249Z,22.70
2017-09-15T13:26:26.540Z,21.50
2017-09-15T13:28:54.114Z,21.50
2017-09-15T13:31:21.682Z,20.90
2017-09-15T13:33:49.227Z,20.50
2017-09-15T13:36:16.780Z,20.30
2017-09-15T13:38:45.073Z,19.60
2017-09-15T13:41:12.636Z,19.50
2017-09-15T13:43:40.352Z,19.40
2017-09-15T13:46:08.280Z,19.30
2017-09-15T13:48:35.834Z,19.20
2017-09-15T13:51:04.156Z,18.30
2017-09-15T13:53:31.690Z,18.30
2017-09-15T13:55:59.233Z,18.30
2017-09-15T13:58:27.583Z,18.40
2017-09-15T14:00:55.205Z,18.40
2017-09-15T14:03:22.773Z,18.60
2017-09-15T14:05:50.331Z,18.70
2017-09-15T14:08:18.246Z,18.70
2017-09-15T14:10:46.090Z,18.80
2017-09-15T14:13:13.942Z,18.80
2017-09-15T14:15:41.534Z,19.00
2017-09-15T14:18:09.099Z,19.10
2017-09-15T14:20:36.649Z,19.30
2017-09-15T14:23:04.242Z,20.20
2017-09-15T14:25:31.999Z,21.10
2017-09-15T14:27:59.818Z,21.60
2017-09-15T14:30:27.634Z,22.20
2017-09-15T14:32:55.497Z,22.40
2017-09-15T14:35:23.042Z,22.40
2017-09-15T14:37:50.871Z,22.50
2017-09-15T14:40:18.446Z,22.80
2017-09-15T14:42:46.724Z,22.80
2017-09-15T14:45:14.295Z,22.10
2017-09-15T14:47:41.894Z,21.60
2017-09-15T14:50:09.633Z,21.70
2017-09-15T14:52:38.228Z,21.50
2017-09-15T14:55:07.113Z,21.30
2017-09-15T14:57:34.676Z,21.30
2017-09-15T15:00:02.284Z,20.90
2017-09-15T15:02:29.840Z,20.70
2017-09-15T15:04:58.138Z,20.30
2017-09-15T15:07:25.872Z,20.00
2017-09-15T15:09:53.463Z,19.60
2017-09-15T15:12:21.208Z,19.00
2017-09-15T15:14:49.662Z,18.70
2017-09-15T15:17:17.265Z,18.70
2017-09-15T15:19:45.807Z,18.60
2017-09-15T15:22:13.561Z,18.60
2017-09-15T15:24:41.229Z,18.50
2017-09-15T15:27:08.876Z,18.30
2017-09-15T15:29:37.515Z,18.20
2017-09-15T15:32:05.107Z,18.00
2017-09-15T15:34:33.434Z,17.50
2017-09-15T15:37:01.006Z,17.40
2017-09-15T15:39:28.551Z,17.30
2017-09-15T15:41:56.104Z,17.30
2017-09-15T15:44:23.653Z,17.30
2017-09-15T15:46:51.296Z,17.20
2017-09-15T15:49:18.866Z,17.00
2017-09-15T15:51:46.441Z,16.80
2017-09-15T15:54:14.766Z,16.90
2017-09-15T15:56:42.494Z,16.80
2017-09-15T15:59:11.008Z,16.80
2017-09-15T16:01:38.586Z,16.70
2017-09-15T16:04:06.556Z,16.60
2017-09-15T16:06:34.257Z,16.50
2017-09-15T16:09:01.826Z,16.40
2017-09-15T16:11:29.390Z,16.20
2017-09-15T16:13:57.262Z,16.20
2017-09-15T16:16:24.862Z,16.00
2017-09-15T16:18:53.288Z,15.70
2017-09-15T16:21:20.818Z,15.60
2017-09-15T16:23:48.350Z,15.60
2017-09-15T16:26:17.263Z,15.10
2017-09-15T16:28:45.571Z,15.10
2017-09-15T16:31:13.381Z,15.10
2017-09-15T16:33:41.131Z,15.00
2017-09-15T16:36:08.778Z,14.90
2017-09-15T16:38:42.071Z,14.80
2017-09-15T16:41:15.416Z,14.80
2017-09-15T16:43:51.532Z,14.70
2017-09-15T16:46:26.072Z,14.60
2017-09-15T16:49:00.310Z,14.40
2017-09-15T16:51:28.375Z,14.30
2017-09-15T16:53:56.482Z,14.10
2017-09-15T16:56:25.780Z,14.00
2017-09-15T16:58:53.917Z,13.90
2017-09-15T17:01:21.530Z,13.70
2017-09-15T17:03:49.878Z,13.40
2017-09-15T17:06:17.583Z,13.30
2017-09-15T17:08:45.873Z,13.00
2017-09-15T17:11:13.592Z,12.90
2017-09-15T17:13:41.163Z,12.80
2017-09-15T17:16:09.078Z,12.60
2017-09-15T17:18:37.498Z,12.30
2017-09-15T17:21:05.195Z,12.30
2017-09-15T17:23:33.417Z,12.20
2017-09-15T17:26:02.501Z,11.70
2017-09-15T17:28:30.886Z,11.70
2017-09-15T17:30:59.197Z,11.50
2017-09-15T17:33:26.764Z,11.50
2017-09-15T17:35:54.341Z,11.50
2017-09-15T17:38:21.881Z,11.40
2017-09-15T17:40:49.678Z,11.20
2017-09-15T17:43:17.322Z,11.10
2017-09-15T17:45:44.954Z,11.00
2017-09-15T17:48:13.333Z,10.80
2017-09-15T17:50:41.017Z,10.70
2017-09-15T17:53:09.884Z,10.60
2017-09-15T17:55:37.575Z,10.60
2017-09-15T17:58:05.220Z,10.50
2017-09-15T18:00:32.799Z,10.30
2017-09-15T18:03:01.727Z,10.10
2017-09-15T18:05:31.784Z,10.00
2017-09-15T18:07:59.745Z,10.00
2017-09-15T18:10:27.676Z,9.90
2017-09-15T18:12:56.394Z,9.90
2017-09-15T18:15:24.521Z,9.90
2017-09-15T18:17:52.874Z,9.90
2017-09-15T18:20:20.789Z,9.90
2017-09-15T18:22:48.487Z,9.90
2017-09-15T18:25:16.047Z,9.80
2017-09-15T18:27:43.600Z,9.80
2017-09-15T18:30:11.460Z,9.70
2017-09-15T18:32:39.796Z,9.60
2017-09-15T18:35:07.342Z,9.50
2017-09-15T18:37:34.869Z,9.50
2017-09-15T18:40:02.562Z,9.40
2017-09-15T18:42:30.123Z,9.30
2017-09-15T18:44:57.712Z,9.30
2017-09-15T18:47:26.579Z,9.20
2017-09-15T18:49:54.148Z,9.20
2017-09-15T18:52:22.729Z,9.20
2017-09-15T18:54:51.025Z,9.20
2017-09-15T18:57:18.588Z,9.20
2017-09-15T18:59:46.191Z,9.20
2017-09-15T19:02:13.761Z,9.10
2017-09-15T19:04:41.364Z,9.10
2017-09-15T19:07:08.920Z,9.10
2017-09-15T19:09:37.249Z,9.10
2017-09-15T19:12:05.578Z,9.10
2017-09-15T19:14:34.005Z,9.20
2017-09-15T19:17:01.614Z,9.10
2017-09-15T19:19:29.221Z,9.10
2017-09-15T19:21:57.514Z,9.10
2017-09-15T19:24:25.111Z,9.10
2017-09-15T19:26:52.688Z,9.00
2017-09-15T19:29:20.232Z,9.00
2017-09-15T19:31:47.811Z,8.90
2017-09-15T19:34:15.711Z,8.90
2017-09-15T19:36:44.065Z,8.80
2017-09-15T19:39:11.638Z,8.70
2017-09-15T19:41:39.167Z,8.70
2017-09-15T19:44:06.832Z,8.70
2017-09-15T19:46:34.369Z,8.70
2017-09-15T19:49:02.706Z,8.70
2017-09-15T19:51:30.275Z,8.60
2017-09-15T19:53:57.862Z,8.60
2017-09-15T19:56:26.179Z,8.60
2017-09-15T19:58:53.715Z,8.50
2017-09-15T20:01:22.052Z,8.50
2017-09-15T20:03:49.613Z,8.40
2017-09-15T20:06:17.138Z,8.50
2017-09-15T20:08:44.716Z,8.60
2017-09-15T20:11:12.281Z,8.60
2017-09-15T20:13:39.870Z,8.60
2017-09-15T20:16:07.407Z,8.50
2017-09-15T20:18:34.956Z,8.60
2017-09-15T20:21:03.340Z,8.70
2017-09-15T20:23:32.031Z,8.70
2017-09-15T20:26:02.040Z,8.70
2017-09-15T20:28:30.380Z,8.80
2017-09-15T20:30:57.922Z,8.80
2017-09-15T20:33:25.490Z,8.80
2017-09-15T20:35:53.072Z,8.80
2017-09-15T20:38:20.633Z,8.90
2017-09-15T20:40:48.157Z,8.90
2017-09-15T20:43:16.490Z,8.90
2017-09-15T20:45:44.160Z,8.90
2017-09-15T20:48:11.738Z,8.90
2017-09-15T20:50:39.269Z,8.90
2017-09-15T20:53:06.821Z,8.90
2017-09-15T20:55:34.366Z,9.00
2017-09-15T20:58:01.947Z,9.00
2017-09-15T21:00:29.496Z,8.90
2017-09-15T21:02:57.089Z,8.90
2017-09-15T21:05:25.408Z,8.80
2017-09-15T21:07:54.027Z,8.80
2017-09-15T21:10:22.313Z,8.80
2017-09-15T21:12:50.657Z,8.80
2017-09-15T21:15:19.127Z,8.80
2017-09-15T21:17:46.649Z,8.90
2017-09-15T21:20:15.296Z,8.90
2017-09-15T21:22:42.834Z,8.80
2017-09-15T21:25:10.374Z,8.90
2017-09-15T21:27:37.900Z,8.90
2017-09-15T21:30:05.445Z,8.90
2017-09-15T21:32:32.994Z,8.90
2017-09-15T21:35:00.529Z,8.90
2017-09-15T21:37:28.111Z,8.80
2017-09-15T21:39:56.438Z,8.80
2017-09-15T21:42:24.011Z,8.80
2017-09-15T21:44:52.307Z,8.80
2017-09-15T21:47:20.838Z,8.80
2017-09-15T21:49:48.637Z,8.80
2017-09-15T21:52:16.403Z,8.80
2017-09-15T21:54:43.962Z,8.90
2017-09-15T21:57:11.787Z,9.00
2017-09-15T21:59:39.498Z,8.90
2017-09-15T22:02:08.696Z,9.00
2017-09-15T22:04:40.368Z,8.90
2017-09-15T22:07:08.833Z,9.00
2017-09-15T22:09:36.591Z,9.00
2017-09-15T22:12:04.403Z,8.90
2017-09-15T22:14:32.846Z,8.90
2017-09-15T22:17:00.645Z,8.90
2017-09-15T22:19:28.432Z,8.80
2017-09-15T22:21:57.898Z,8.90
2017-09-15T22:24:25.871Z,8.90
2017-09-15T22:26:53.756Z,8.80
2017-09-15T22:29:22.436Z,9.00
2017-09-15T22:31:50.300Z,8.90
2017-09-15T22:34:18.193Z,9.00
2017-09-15T22:36:46.717Z,8.90
2017-09-15T22:39:16.060Z,8.90
2017-09-15T22:41:44.981Z,8.90
2017-09-15T22:44:13.501Z,9.00
2017-09-15T22:46:41.342Z,9.00
2017-09-15T22:49:09.109Z,9.10
2017-09-15T22:51:36.821Z,9.10
2017-09-15T22:54:04.677Z,9.00
2017-09-15T22:56:33.175Z,9.10
2017-09-15T22:59:00.954Z,9.00
2017-09-15T23:01:29.728Z,9.10
2017-09-15T23:03:57.545Z,9.10
2017-09-15T23:06:25.405Z,9.00
2017-09-15T23:08:54.559Z,9.00
2017-09-15T23:11:23.184Z,9.00
2017-09-15T23:13:51.100Z,9.00
2017-09-15T23:16:19.780Z,9.00
2017-09-15T23:18:47.435Z,9.00
2017-09-15T23:21:15.375Z,9.10
2017-09-15T23:23:43.153Z,9.10
2017-09-15T23:26:10.740Z,9.10
2017-09-15T23:28:38.416Z,9.20
2017-09-15T23:31:06.049Z,9.10
2017-09-15T23:33:33.585Z,9.20
2017-09-15T23:36:01.887Z,9.20
2017-09-15T23:38:30.600Z,9.20
2017-09-15T23:40:58.144Z,9.20
2017-09-15T23:43:25.682Z,9.20
2017-09-15T23:45:53.245Z,9.10
2017-09-15T23:48:20.888Z,9.10
2017-09-15T23:50:48.408Z,9.10
2017-09-15T23:53:15.965Z,9.10
2017-09-15T23:55:43.538Z,9.10
2017-09-15T23:58:11.080Z,9.10
